Kerrobert, Canada
Current Conditions -  °F | °C
As of 3:00 PM on Wednesday 22 Oct 2014 (Local Time) from CYKY Reporting Station
Few Clouds Few Clouds  
Wind Chill: 59°   Ceiling: Unl
Heat Index: 59°   Visibility: 15mi
Dew Point: 36°   Wind: 2mph
Humidity: 42%   Direction: NA
Pressure: 29.74"   Gusts: NA
Location:  51.92°N, 109.13°W
Report Text: CYKY 222100Z VRB02KT 15SM FEW055 15/02 A2974 RMK SC1 SLP077 DENSITY ALT 3000FT
Loading
Personal Weather Stations






























Interactive Weather Map
Tropical Storm Tracking
New forecast layout! Learn more

10-Day Weather Forecast

Advertisements
Track Severe Weather on mobile